Time;durP1;ratioP1;P1;durP2;ratioP2;P2;SDS_P1;SDS_P2;PMS_P1;PMS_P2;Temp;Humidity;BMP_temperature;BMP_pressure;BME280_temperature;BME280_humidity;BME280_pressure;Samples;Min_cycle;Max_cycle;Signal;HPM_P1;HPM_P2
2023/01/12 00:01:54;;;;;;;11.85;2.25;;;7.40;91.30;;;;;;5030298;28;20073;-51
2023/01/12 00:04:20;;;;;;;10.93;2.90;;;7.50;90.80;;;;;;5034522;28;20454;-47
2023/01/12 00:06:48;;;;;;;13.48;2.58;;;7.40;90.10;;;;;;5033662;28;20040;-47
2023/01/12 00:09:17;;;;;;;12.65;3.28;;;7.40;89.50;;;;;;5033622;28;20029;-45
2023/01/12 00:11:44;;;;;;;9.57;2.17;;;7.40;89.20;;;;;;5034447;28;20021;-45
2023/01/12 00:14:11;;;;;;;10.77;2.95;;;7.40;89.30;;;;;;5034695;28;20037;-48
2023/01/12 00:16:38;;;;;;;8.32;1.98;;;7.40;89.40;;;;;;5030010;28;20025;-47
2023/01/12 00:19:23;;;;;;;12.95;2.00;;;7.40;89.30;;;;;;5032009;28;20462;-49
2023/01/12 00:24:36;;;;;;;8.00;2.60;;;7.40;89.90;;;;;;5034353;28;20026;-49
2023/01/12 00:27:09;;;;;;;13.18;2.33;;;7.40;90.00;;;;;;5011663;28;20034;-49
2023/01/12 00:29:36;;;;;;;8.35;2.08;;;7.40;90.10;;;;;;5030599;28;20048;-46
2023/01/12 00:32:04;;;;;;;10.85;2.22;;;7.40;90.20;;;;;;5033499;28;20427;-49
2023/01/12 00:34:30;;;;;;;11.50;2.80;;;7.30;90.10;;;;;;5015812;28;20037;-51
2023/01/12 00:36:58;;;;;;;8.50;2.60;;;7.30;90.30;;;;;;5014178;28;20030;-51
2023/01/12 00:39:25;;;;;;;9.88;2.38;;;7.20;90.40;;;;;;5032335;28;20025;-51
2023/01/12 00:47:26;;;;;;;13.07;2.85;;;7.00;90.50;;;;;;5030550;28;20040;-49
2023/01/12 00:49:55;;;;;;;23.10;3.33;;;7.00;90.50;;;;;;5033484;28;20026;-51
2023/01/12 00:52:27;;;;;;;11.25;2.55;;;6.90;90.50;;;;;;5031238;28;20029;-53
2023/01/12 00:54:53;;;;;;;20.35;4.05;;;6.90;90.60;;;;;;5028373;28;20100;-49
2023/01/12 00:57:19;;;;;;;14.18;2.72;;;6.90;90.60;;;;;;5013709;28;20033;-45
2023/01/12 00:59:46;;;;;;;16.00;3.80;;;6.90;90.70;;;;;;5013961;28;20030;-49
2023/01/12 01:02:13;;;;;;;13.23;3.45;;;6.80;90.70;;;;;;5015836;28;20049;-47
2023/01/12 01:04:40;;;;;;;9.85;2.53;;;6.80;90.70;;;;;;5027902;28;20036;-47
2023/01/12 01:07:06;;;;;;;13.48;2.10;;;6.90;90.90;;;;;;5013592;28;20497;-45
2023/01/12 01:09:34;;;;;;;16.70;3.22;;;6.90;90.90;;;;;;5013654;28;20077;-49
2023/01/12 01:12:01;;;;;;;17.88;5.38;;;7.00;91.00;;;;;;5013710;28;20479;-48
2023/01/12 01:14:28;;;;;;;13.85;2.75;;;7.00;91.00;;;;;;5017260;28;20407;-51
2023/01/12 01:16:54;;;;;;;17.45;3.10;;;7.00;90.90;;;;;;5013500;28;20104;-47
2023/01/12 01:19:22;;;;;;;14.07;4.75;;;7.00;90.70;;;;;;5023931;28;20680;-47
2023/01/12 01:21:48;;;;;;;20.55;3.22;;;7.00;90.50;;;;;;5013355;28;20052;-49
2023/01/12 01:24:15;;;;;;;11.20;2.15;;;6.90;90.30;;;;;;5018009;28;20037;-46
2023/01/12 01:26:42;;;;;;;11.95;2.50;;;6.90;90.00;;;;;;5033204;28;20030;-50
2023/01/12 01:29:09;;;;;;;13.07;3.40;;;6.90;89.90;;;;;;5029203;28;20042;-47
2023/01/12 01:31:36;;;;;;;15.00;2.92;;;6.90;89.80;;;;;;5013123;28;20028;-47
2023/01/12 01:34:02;;;;;;;16.58;3.50;;;6.90;89.80;;;;;;5025429;28;20068;-46
2023/01/12 01:36:28;;;;;;;16.27;2.50;;;6.90;89.80;;;;;;5027507;28;20420;-47
2023/01/12 01:38:55;;;;;;;12.43;2.78;;;6.90;89.70;;;;;;5011961;28;20030;-50
2023/01/12 01:41:28;;;;;;;10.27;2.08;;;6.90;89.70;;;;;;5012921;28;20458;-51
2023/01/12 01:44:01;;;;;;;10.02;2.58;;;7.00;89.80;;;;;;5026095;28;20036;-54
2023/01/12 01:46:35;;;;;;;9.38;2.20;;;7.00;89.90;;;;;;5028364;28;20029;-57
2023/01/12 01:49:39;;;;;;;14.80;2.60;;;7.00;90.30;;;;;;5023706;28;20017;-59
2023/01/12 01:52:08;;;;;;;10.55;2.20;;;6.90;90.70;;;;;;5030215;28;20026;-59
2023/01/12 01:54:40;;;;;;;9.43;2.08;;;7.00;91.00;;;;;;5014701;28;20021;-57
2023/01/12 01:57:13;;;;;;;7.68;1.65;;;6.90;91.20;;;;;;5033092;28;20025;-54
2023/01/12 01:59:46;;;;;;;9.60;1.98;;;6.90;91.30;;;;;;5025393;28;20022;-53
2023/01/12 02:02:14;;;;;;;8.40;1.83;;;6.90;91.50;;;;;;5013370;28;20061;-52
2023/01/12 02:04:41;;;;;;;9.05;2.00;;;6.90;91.60;;;;;;5027531;28;20049;-53
2023/01/12 02:07:11;;;;;;;10.05;2.00;;;6.90;91.80;;;;;;5032021;28;20040;-53
2023/01/12 02:09:41;;;;;;;;;;;6.90;91.90;;;;;;5018289;28;20033;-51
2023/01/12 02:18:17;;;;;;;13.18;2.65;;;6.90;92.30;;;;;;5026442;28;20026;-50
2023/01/12 02:20:54;;;;;;;14.02;3.25;;;6.80;92.30;;;;;;5010920;28;20026;-51
2023/01/12 02:23:58;;;;;;;12.90;2.97;;;6.80;92.40;;;;;;5011972;28;20096;-53
2023/01/12 02:26:57;;;;;;;19.98;3.03;;;6.80;92.50;;;;;;5012078;28;20026;-50
2023/01/12 02:29:28;;;;;;;13.77;2.72;;;6.80;92.50;;;;;;5013260;28;20037;-52
2023/01/12 02:32:18;;;;;;;18.05;3.40;;;6.80;92.50;;;;;;5025601;28;20057;-50
2023/01/12 02:35:25;;;;;;;12.60;2.67;;;6.70;92.50;;;;;;5034073;28;20131;-51
2023/01/12 02:38:11;;;;;;;19.30;3.72;;;6.70;92.60;;;;;;5036435;28;20049;-49
2023/01/12 02:41:14;;;;;;;16.45;3.42;;;6.70;92.60;;;;;;5022591;28;20026;-53
2023/01/12 02:43:42;;;;;;;16.50;3.10;;;6.70;92.70;;;;;;5016739;28;20022;-47
2023/01/12 02:46:26;;;;;;;13.40;3.00;;;6.80;92.90;;;;;;5025659;28;20061;-50
2023/01/12 02:49:13;;;;;;;23.40;3.65;;;6.90;93.00;;;;;;5035447;28;20029;-49
2023/01/12 02:52:04;;;;;;;15.00;3.35;;;6.90;93.00;;;;;;5017037;28;20499;-48
2023/01/12 02:54:36;;;;;;;11.93;3.20;;;7.00;93.00;;;;;;5021476;28;20033;-50
2023/01/12 02:57:07;;;;;;;16.80;4.97;;;7.10;93.00;;;;;;5016702;28;20333;-45
2023/01/12 02:59:37;;;;;;;12.55;3.83;;;7.20;92.90;;;;;;5016196;28;20037;-46
2023/01/12 03:02:15;;;;;;;11.55;2.67;;;7.20;92.80;;;;;;5030471;28;20052;-50
2023/01/12 03:04:42;;;;;;;13.27;3.22;;;7.30;92.70;;;;;;5016504;28;20060;-47
2023/01/12 03:07:27;;;;;;;12.93;3.25;;;7.30;92.60;;;;;;5036255;28;20457;-45
2023/01/12 03:10:13;;;;;;;12.95;3.05;;;7.30;92.50;;;;;;5032020;28;20062;-49
2023/01/12 03:12:45;;;;;;;13.15;3.50;;;7.40;92.40;;;;;;5016543;28;20061;-48
2023/01/12 03:15:15;;;;;;;11.95;3.08;;;7.40;92.20;;;;;;5035929;28;20040;-45
2023/01/12 03:17:58;;;;;;;12.15;2.92;;;7.30;92.20;;;;;;5024677;28;20454;-50
2023/01/12 03:20:33;;;;;;;13.25;3.05;;;7.40;92.20;;;;;;5033610;28;20510;-49
2023/01/12 03:23:17;;;;;;;17.10;3.63;;;7.40;92.10;;;;;;5036000;28;20143;-50
2023/01/12 03:25:45;;;;;;;21.55;4.10;;;7.40;92.10;;;;;;5034221;28;20423;-50
2023/01/12 03:28:16;;;;;;;9.40;2.65;;;7.30;92.10;;;;;;5034270;28;20072;-47
2023/01/12 03:30:51;;;;;;;13.77;2.85;;;7.30;92.00;;;;;;5035716;28;20056;-48
2023/01/12 03:33:22;;;;;;;11.82;2.40;;;7.30;92.00;;;;;;5033006;28;20025;-49
2023/01/12 03:36:03;;;;;;;15.15;2.53;;;7.30;92.10;;;;;;5032929;28;20379;-49
2023/01/12 03:38:41;;;;;;;12.45;3.00;;;7.20;92.10;;;;;;5014808;28;20030;-49
2023/01/12 03:41:50;;;;;;;16.27;3.05;;;7.30;92.30;;;;;;5015300;28;20040;-45
2023/01/12 03:44:42;;;;;;;12.23;2.72;;;7.30;92.40;;;;;;5025104;28;20128;-49
2023/01/12 03:47:19;;;;;;;23.25;3.83;;;7.30;92.50;;;;;;5035235;28;20045;-50
2023/01/12 03:50:22;;;;;;;17.42;4.18;;;7.40;92.60;;;;;;5033437;28;20029;-51
2023/01/12 03:52:50;;;;;;;19.02;4.18;;;7.40;92.60;;;;;;5015457;28;20062;-44
2023/01/12 03:55:22;;;;;;;10.23;4.20;;;7.50;92.70;;;;;;5015593;28;20566;-53
2023/01/12 03:57:51;;;;;;;14.32;3.72;;;7.50;92.60;;;;;;5016689;28;20141;-57
2023/01/12 04:00:23;;;;;;;16.70;4.47;;;7.50;92.60;;;;;;5032348;28;20037;-61
2023/01/12 04:03:02;;;;;;;14.00;3.30;;;7.50;92.70;;;;;;5033577;28;20050;-61
2023/01/12 04:05:28;;;;;;;18.20;3.53;;;7.50;92.80;;;;;;5019668;28;20116;-59
2023/01/12 04:07:54;;;;;;;16.10;3.85;;;7.50;92.90;;;;;;5013973;28;20140;-59
2023/01/12 04:10:20;;;;;;;14.60;3.22;;;7.50;93.00;;;;;;5014309;28;20096;-59
2023/01/12 04:12:47;;;;;;;14.27;3.58;;;7.60;93.10;;;;;;5014454;28;20033;-60
2023/01/12 04:15:16;;;;;;;16.55;3.53;;;7.50;93.10;;;;;;5028897;28;20045;-61
2023/01/12 04:17:43;;;;;;;20.60;5.17;;;7.50;93.30;;;;;;5034893;28;20033;-60
2023/01/12 04:20:11;;;;;;;12.02;4.22;;;7.60;93.40;;;;;;5023607;28;20299;-61
2023/01/12 04:22:43;;;;;;;16.98;3.72;;;7.60;93.50;;;;;;4997529;28;20395;-61
2023/01/12 04:25:18;;;;;;;18.75;3.90;;;7.60;93.50;;;;;;5028794;28;20112;-62
2023/01/12 04:27:49;;;;;;;17.70;4.60;;;7.60;93.50;;;;;;5031757;28;20129;-63
2023/01/12 04:30:17;;;;;;;18.88;4.13;;;7.60;93.70;;;;;;5019266;28;20133;-61
2023/01/12 04:32:48;;;;;;;11.60;3.63;;;7.60;93.80;;;;;;5014188;28;20347;-57
2023/01/12 04:35:15;;;;;;;15.20;4.82;;;7.60;93.80;;;;;;5024365;28;20064;-58
2023/01/12 04:37:43;;;;;;;12.48;5.10;;;7.50;93.90;;;;;;5030395;28;20036;-59
2023/01/12 04:40:12;;;;;;;13.10;4.75;;;7.50;94.00;;;;;;5013295;28;20026;-61
2023/01/12 04:42:59;;;;;;;18.33;4.27;;;7.50;94.10;;;;;;5013909;28;20029;-63
2023/01/12 04:45:29;;;;;;;15.52;4.50;;;7.50;94.20;;;;;;5017893;28;20085;-62
2023/01/12 04:48:08;;;;;;;14.02;4.95;;;7.60;94.30;;;;;;5014002;28;20022;-62
2023/01/12 04:50:39;;;;;;;18.80;5.88;;;7.50;94.30;;;;;;5024738;28;20029;-61
2023/01/12 04:53:08;;;;;;;10.75;5.07;;;7.50;94.40;;;;;;5033135;28;20022;-62
2023/01/12 04:55:41;;;;;;;14.30;5.40;;;7.60;94.50;;;;;;5013139;28;20422;-63
2023/01/12 04:58:07;;;;;;;12.00;5.20;;;7.60;94.60;;;;;;5017642;28;20050;-62
2023/01/12 05:00:35;;;;;;;19.63;7.55;;;7.60;94.60;;;;;;5015007;28;20091;-62
2023/01/12 05:03:02;;;;;;;16.42;6.00;;;7.60;94.60;;;;;;5033561;28;20041;-62
2023/01/12 05:05:30;;;;;;;15.25;6.13;;;7.60;94.70;;;;;;5029671;28;20095;-64
2023/01/12 05:10:53;;;;;;;13.52;5.45;;;7.70;94.80;;;;;;5033749;28;20125;-62
2023/01/12 05:13:20;;;;;;;11.57;5.75;;;7.70;94.90;;;;;;5027587;28;20234;-62
2023/01/12 05:15:47;;;;;;;14.50;5.18;;;7.70;94.90;;;;;;5026119;28;20038;-59
2023/01/12 05:18:16;;;;;;;11.23;5.25;;;7.70;95.00;;;;;;5033293;28;20032;-60
2023/01/12 05:20:45;;;;;;;14.02;5.13;;;7.80;95.00;;;;;;5031764;28;20398;-60
2023/01/12 05:23:12;;;;;;;9.73;5.18;;;7.80;95.00;;;;;;5018879;28;20034;-60
2023/01/12 05:25:39;;;;;;;10.25;4.40;;;7.80;95.00;;;;;;5013696;28;20366;-58
2023/01/12 05:28:06;;;;;;;16.13;5.30;;;7.90;95.00;;;;;;5027894;28;20610;-57
2023/01/12 05:30:33;;;;;;;9.93;4.28;;;7.90;95.10;;;;;;5024045;28;20060;-56
2023/01/12 05:33:00;;;;;;;13.02;5.07;;;7.90;95.00;;;;;;5013562;28;20026;-58
2023/01/12 05:35:27;;;;;;;13.02;4.90;;;7.90;95.00;;;;;;5020196;28;20030;-58
2023/01/12 05:37:56;;;;;;;14.20;5.20;;;7.90;95.00;;;;;;5027679;28;20041;-56
2023/01/12 05:40:23;;;;;;;;;;;7.90;95.00;;;;;;5020526;28;20034;-59
2023/01/12 05:45:36;;;;;;;7.72;4.47;;;7.90;95.00;;;;;;5013482;28;20524;-61
2023/01/12 05:48:03;;;;;;;9.82;4.85;;;7.90;95.00;;;;;;5013086;28;20080;-63
2023/01/12 05:50:32;;;;;;;11.85;4.50;;;7.90;95.00;;;;;;5021552;28;20024;-61
2023/01/12 05:52:58;;;;;;;8.40;4.10;;;7.90;95.00;;;;;;5031814;28;20022;-60
2023/01/12 05:55:24;;;;;;;10.60;4.97;;;7.90;95.10;;;;;;5024164;28;20059;-59
2023/01/12 05:57:52;;;;;;;7.60;3.65;;;7.90;95.10;;;;;;5031067;28;20116;-59
2023/01/12 06:00:18;;;;;;;9.10;4.53;;;7.90;95.10;;;;;;5026686;28;20026;-62
2023/01/12 06:02:44;;;;;;;8.35;4.90;;;7.90;95.10;;;;;;5031625;28;20048;-62
2023/01/12 06:05:11;;;;;;;9.30;3.75;;;7.90;95.10;;;;;;5031412;28;20084;-60
2023/01/12 06:07:38;;;;;;;7.32;3.33;;;8.00;95.00;;;;;;5032640;28;20434;-61
2023/01/12 06:10:08;;;;;;;10.43;3.50;;;7.90;95.00;;;;;;5036171;28;20051;-60
2023/01/12 06:15:20;;;;;;;6.60;3.17;;;8.00;95.00;;;;;;5034585;28;20011;-63
2023/01/12 06:17:47;;;;;;;9.32;3.40;;;8.00;95.00;;;;;;5022935;28;20033;-64
2023/01/12 06:20:16;;;;;;;8.20;2.63;;;7.90;94.90;;;;;;5033489;28;20108;-63
2023/01/12 06:22:44;;;;;;;6.82;2.40;;;8.00;94.90;;;;;;5036478;28;20091;-63
2023/01/12 06:25:11;;;;;;;6.90;2.03;;;8.00;94.90;;;;;;5033588;28;20065;-63
2023/01/12 06:27:38;;;;;;;5.07;2.30;;;7.90;94.90;;;;;;5032361;28;20356;-62
2023/01/12 06:30:06;;;;;;;7.57;2.28;;;7.90;94.80;;;;;;5037643;28;20103;-63
2023/01/12 06:32:33;;;;;;;5.10;1.80;;;8.00;94.90;;;;;;5035868;28;20025;-63
2023/01/12 06:35:03;;;;;;;4.50;1.67;;;8.00;94.80;;;;;;5036006;28;20017;-64
2023/01/12 06:37:31;;;;;;;6.82;1.73;;;8.00;94.80;;;;;;5027861;28;20601;-63
2023/01/12 06:39:58;;;;;;;4.43;1.73;;;8.00;94.70;;;;;;5037274;28;20029;-63
2023/01/12 06:42:27;;;;;;;4.07;1.92;;;7.90;94.60;;;;;;5036403;28;20052;-62
2023/01/12 06:44:59;;;;;;;7.63;1.75;;;7.90;94.70;;;;;;5035457;28;20045;-60
2023/01/12 06:47:33;;;;;;;3.35;1.38;;;7.90;94.80;;;;;;5030436;28;20029;-62
2023/01/12 06:50:00;;;;;;;2.78;1.60;;;7.90;94.80;;;;;;5037192;28;20447;-63
2023/01/12 06:52:29;;;;;;;6.05;1.60;;;7.90;94.80;;;;;;5038870;28;20044;-60
2023/01/12 06:54:56;;;;;;;;;;;7.90;94.80;;;;;;5032671;28;20037;-60
2023/01/12 06:57:23;;;;;;;3.97;1.20;;;7.90;94.80;;;;;;5037772;28;19913;-65
2023/01/12 06:59:52;;;;;;;5.25;1.40;;;7.90;94.80;;;;;;5037145;28;20029;-64
2023/01/12 07:02:19;;;;;;;3.70;1.00;;;7.90;94.80;;;;;;5027564;28;20045;-63
2023/01/12 07:04:46;;;;;;;3.72;1.10;;;7.90;94.80;;;;;;5033688;28;20769;-62
2023/01/12 07:07:12;;;;;;;3.28;1.38;;;7.90;94.80;;;;;;5033883;28;20044;-63
2023/01/12 07:09:39;;;;;;;5.80;1.50;;;7.90;94.80;;;;;;5032775;28;20067;-62
2023/01/12 07:12:05;;;;;;;3.50;1.55;;;7.90;94.80;;;;;;5029264;28;20702;-59
2023/01/12 07:14:32;;;;;;;5.63;1.45;;;7.90;94.80;;;;;;5035814;28;20483;-60
2023/01/12 07:17:00;;;;;;;7.78;2.22;;;7.90;94.80;;;;;;5037622;28;20068;-61
2023/01/12 07:19:27;;;;;;;4.63;1.35;;;7.90;94.80;;;;;;5032723;28;20037;-64
2023/01/12 07:21:56;;;;;;;4.22;1.30;;;7.90;94.80;;;;;;5028634;28;20124;-64
2023/01/12 07:24:23;;;;;;;3.22;1.35;;;7.90;94.80;;;;;;5031306;28;20048;-63
2023/01/12 07:26:51;;;;;;;5.93;1.10;;;8.00;94.80;;;;;;5031144;28;20029;-62
2023/01/12 07:29:17;;;;;;;3.58;1.17;;;7.90;94.90;;;;;;5032662;28;20116;-61
2023/01/12 07:31:44;;;;;;;2.60;0.95;;;8.00;94.90;;;;;;5023814;28;20026;-62
2023/01/12 07:34:10;;;;;;;4.30;1.23;;;8.00;94.90;;;;;;5029008;28;20104;-64
2023/01/12 07:36:37;;;;;;;3.90;1.17;;;8.10;94.90;;;;;;5032462;28;20414;-63
2023/01/12 07:39:04;;;;;;;4.03;1.15;;;8.00;94.90;;;;;;5033472;28;20495;-61
2023/01/12 07:44:17;;;;;;;3.97;1.20;;;8.20;95.00;;;;;;5034623;28;20048;-60
2023/01/12 07:46:44;;;;;;;4.07;1.35;;;8.10;95.00;;;;;;5017531;28;20047;-60
2023/01/12 07:49:11;;;;;;;3.15;1.10;;;8.10;95.00;;;;;;5033038;28;20017;-61
2023/01/12 07:51:38;;;;;;;3.05;1.25;;;8.20;95.10;;;;;;5033974;28;20367;-60
2023/01/12 07:54:05;;;;;;;2.60;1.33;;;8.20;95.10;;;;;;5023977;28;20128;-63
2023/01/12 07:56:36;;;;;;;3.90;0.80;;;8.20;95.20;;;;;;5033566;28;20030;-62
2023/01/12 07:59:03;;;;;;;5.20;1.20;;;8.20;95.20;;;;;;5032941;28;20022;-63
2023/01/12 08:01:31;;;;;;;2.67;1.00;;;8.30;95.20;;;;;;5026246;28;20042;-63
2023/01/12 08:04:00;;;;;;;4.10;0.90;;;8.30;95.30;;;;;;5031812;28;20047;-62
2023/01/12 08:06:26;;;;;;;3.00;1.40;;;8.30;95.30;;;;;;5030424;28;20033;-61
2023/01/12 08:08:55;;;;;;;3.35;0.90;;;8.40;95.30;;;;;;5032764;28;20529;-59
2023/01/12 08:11:22;;;;;;;2.65;1.08;;;8.40;95.40;;;;;;5028674;28;20025;-58
2023/01/12 08:13:54;;;;;;;3.28;0.88;;;8.40;95.40;;;;;;5032515;28;20029;-56
2023/01/12 08:16:37;;;;;;;2.47;1.08;;;8.50;95.40;;;;;;5030455;28;20029;-59
2023/01/12 08:19:14;;;;;;;2.25;0.90;;;8.50;95.40;;;;;;5029976;28;20056;-63
2023/01/12 08:21:47;;;;;;;2.45;0.90;;;8.50;95.50;;;;;;5020421;28;20030;-63
2023/01/12 08:24:22;;;;;;;2.83;1.00;;;8.60;95.50;;;;;;5029889;28;20077;-63
2023/01/12 08:26:52;;;;;;;5.07;1.00;;;8.60;95.50;;;;;;5032677;28;20031;-63
2023/01/12 08:29:42;;;;;;;2.85;0.90;;;8.70;95.50;;;;;;5029898;28;20493;-63
2023/01/12 08:32:16;;;;;;;1.38;0.65;;;8.70;95.60;;;;;;5029999;28;20037;-61
2023/01/12 08:34:46;;;;;;;0.98;0.60;;;8.80;95.60;;;;;;5030264;28;20199;-60
2023/01/12 08:37:17;;;;;;;3.47;1.00;;;8.80;95.50;;;;;;5030576;28;20132;-62
2023/01/12 08:39:44;;;;;;;2.00;0.73;;;8.80;95.60;;;;;;5032596;28;20601;-61
2023/01/12 08:42:14;;;;;;;1.75;1.05;;;8.90;95.60;;;;;;5026774;28;20156;-62
2023/01/12 08:44:42;;;;;;;2.38;1.00;;;8.90;95.60;;;;;;5027588;28;20029;-61
2023/01/12 08:47:19;;;;;;;2.63;1.40;;;8.90;95.60;;;;;;5031865;28;20041;-63
2023/01/12 08:49:46;;;;;;;1.52;0.77;;;8.90;95.70;;;;;;5031039;28;20030;-63
2023/01/12 08:52:13;;;;;;;3.75;1.20;;;9.00;95.70;;;;;;5021300;28;20479;-62
2023/01/12 08:54:42;;;;;;;2.75;1.13;;;9.00;95.70;;;;;;5030853;28;20026;-60
2023/01/12 08:57:15;;;;;;;1.83;0.98;;;9.00;95.70;;;;;;5027406;28;20577;-58
2023/01/12 08:59:41;;;;;;;3.10;1.00;;;9.10;95.70;;;;;;5029390;28;20057;-59
2023/01/12 09:02:10;;;;;;;2.13;1.10;;;9.10;95.70;;;;;;5031002;28;20127;-56
2023/01/12 09:04:39;;;;;;;2.80;1.07;;;9.20;95.80;;;;;;5018660;28;20025;-60
2023/01/12 09:07:07;;;;;;;5.22;0.90;;;9.20;95.80;;;;;;5032401;28;20021;-59
2023/01/12 09:09:33;;;;;;;2.85;0.82;;;9.20;95.70;;;;;;5028281;28;20064;-58
2023/01/12 09:12:00;;;;;;;1.75;1.05;;;9.20;95.80;;;;;;5029328;28;20060;-59
2023/01/12 09:14:32;;;;;;;1.83;0.80;;;9.30;95.80;;;;;;5029013;28;20462;-56
2023/01/12 09:16:59;;;;;;;2.33;1.05;;;9.30;95.80;;;;;;5032676;28;20029;-55
2023/01/12 09:19:24;;;;;;;3.05;1.80;;;9.30;95.80;;;;;;5030409;28;20029;-54
2023/01/12 09:21:51;;;;;;;3.30;1.48;;;9.40;95.80;;;;;;5023819;28;20029;-65
2023/01/12 09:24:17;;;;;;;4.28;1.50;;;9.40;95.80;;;;;;5025089;28;20034;-66
2023/01/12 09:26:45;;;;;;;5.75;1.60;;;9.50;95.80;;;;;;5030615;28;20186;-63
2023/01/12 09:29:13;;;;;;;4.72;1.65;;;9.50;95.80;;;;;;5029539;28;20339;-64
2023/01/12 09:31:42;;;;;;;4.68;1.48;;;9.50;95.80;;;;;;5028906;28;20029;-62
2023/01/12 09:34:10;;;;;;;3.25;1.45;;;9.50;95.80;;;;;;5029078;28;20413;-60
2023/01/12 09:36:37;;;;;;;6.03;2.33;;;9.50;95.90;;;;;;5020468;28;20100;-58
2023/01/12 09:39:04;;;;;;;5.25;1.75;;;9.60;95.90;;;;;;5026478;28;20025;-60
2023/01/12 09:47:24;;;;;;;6.25;2.00;;;9.70;95.90;;;;;;5028605;28;20374;-54
2023/01/12 09:50:04;;;;;;;5.30;1.75;;;9.70;95.90;;;;;;5029708;28;20053;-53
2023/01/12 09:52:51;;;;;;;5.60;1.55;;;9.80;95.90;;;;;;5032007;28;20530;-53
2023/01/12 09:55:22;;;;;;;7.00;1.92;;;9.80;95.90;;;;;;5031052;28;20457;-50
2023/01/12 09:58:09;;;;;;;9.77;2.25;;;9.90;95.90;;;;;;5019010;28;20025;-54
2023/01/12 10:00:36;;;;;;;5.15;1.60;;;9.90;95.90;;;;;;5031792;28;20083;-53
2023/01/12 10:03:06;;;;;;;8.68;2.50;;;9.90;95.90;;;;;;5026217;28;20084;-49
2023/01/12 10:05:54;;;;;;;6.88;1.63;;;9.90;95.90;;;;;;5025946;28;20064;-52
2023/01/12 10:08:41;;;;;;;9.60;2.53;;;10.00;95.90;;;;;;5030977;28;20044;-52
2023/01/12 10:11:34;;;;;;;8.63;2.90;;;10.10;95.80;;;;;;5027475;28;20131;-53
2023/01/12 10:14:19;;;;;;;15.20;2.70;;;10.10;95.80;;;;;;5030319;28;20052;-53
2023/01/12 10:17:12;;;;;;;12.07;2.90;;;10.10;95.70;;;;;;5030539;28;20041;-49
2023/01/12 10:19:53;;;;;;;14.95;3.00;;;10.20;95.70;;;;;;5024117;28;20068;-50
2023/01/12 10:22:39;;;;;;;11.07;3.05;;;10.30;95.50;;;;;;5031489;28;20433;-45
2023/01/12 10:25:32;;;;;;;9.35;3.20;;;10.40;95.40;;;;;;5031902;28;20029;-45
2023/01/12 10:28:05;;;;;;;13.95;2.95;;;10.40;95.20;;;;;;5028165;28;20035;-46
2023/01/12 10:30:35;;;;;;;10.00;2.35;;;10.40;95.00;;;;;;5028912;28;20025;-45
2023/01/12 10:33:15;;;;;;;13.50;2.92;;;10.50;94.80;;;;;;5022946;28;20382;-45
2023/01/12 10:36:16;;;;;;;9.68;2.47;;;10.60;94.60;;;;;;5029519;28;20347;-45
2023/01/12 10:39:02;;;;;;;9.82;2.28;;;10.70;94.20;;;;;;5029846;28;20076;-47
2023/01/12 10:41:30;;;;;;;7.43;2.30;;;10.70;93.90;;;;;;5030853;28;20345;-51
2023/01/12 10:44:02;;;;;;;8.23;2.00;;;10.80;93.60;;;;;;5031195;28;20086;-45
2023/01/12 10:46:34;;;;;;;10.15;2.22;;;10.80;93.20;;;;;;5024168;28;20069;-45
2023/01/12 10:49:20;;;;;;;10.15;2.72;;;10.90;92.80;;;;;;5031533;28;20100;-43
2023/01/12 10:52:00;;;;;;;11.88;1.88;;;10.90;92.30;;;;;;5029117;28;20033;-45
2023/01/12 10:54:44;;;;;;;;;;;10.90;92.10;;;;;;5030938;28;20088;-45
2023/01/12 10:57:20;;;;;;;10.68;2.60;;;11.00;91.90;;;;;;5030116;28;19909;-44
2023/01/12 10:59:58;;;;;;;9.52;1.95;;;10.90;91.80;;;;;;5033248;28;20084;-46
2023/01/12 11:02:42;;;;;;;7.82;2.70;;;10.90;92.20;;;;;;5034224;28;20055;-49
2023/01/12 11:05:37;;;;;;;9.32;2.20;;;10.80;92.30;;;;;;5024218;28;20355;-47
2023/01/12 11:08:25;;;;;;;11.50;2.17;;;10.80;92.50;;;;;;5027753;28;20105;-43
2023/01/12 11:10:52;;;;;;;9.98;2.65;;;10.80;92.40;;;;;;5029193;28;20029;-51
2023/01/12 11:13:36;;;;;;;10.52;2.85;;;10.80;92.40;;;;;;5031800;28;20109;-44
2023/01/12 11:16:23;;;;;;;12.55;2.70;;;10.80;92.30;;;;;;5030872;28;20045;-44
2023/01/12 11:19:09;;;;;;;9.40;2.00;;;10.70;92.50;;;;;;5033652;28;20032;-46
2023/01/12 11:21:40;;;;;;;15.63;2.83;;;10.60;92.20;;;;;;5031837;28;20044;-45
2023/01/12 11:24:29;;;;;;;9.80;2.45;;;10.50;91.40;;;;;;5033091;28;20049;-43
2023/01/12 11:27:08;;;;;;;19.80;4.28;;;10.40;91.10;;;;;;5027963;28;20037;-43
2023/01/12 11:29:49;;;;;;;22.48;3.40;;;10.40;91.00;;;;;;5033511;28;20469;-46
2023/01/12 11:32:40;;;;;;;20.20;4.35;;;10.40;91.10;;;;;;5031176;28;20064;-44
2023/01/12 11:35:15;;;;;;;15.05;3.28;;;10.40;91.20;;;;;;5027285;28;20065;-44
2023/01/12 11:37:44;;;;;;;16.15;3.55;;;10.40;91.20;;;;;;5031959;28;20048;-44
2023/01/12 11:40:32;;;;;;;18.73;3.85;;;10.40;91.10;;;;;;5031823;28;20481;-46
2023/01/12 11:43:48;;;;;;;20.35;4.28;;;10.40;91.10;;;;;;5029969;28;20033;-46
2023/01/12 11:46:39;;;;;;;20.98;3.83;;;10.40;91.10;;;;;;5033564;28;20033;-44
2023/01/12 11:49:42;;;;;;;20.85;4.07;;;10.40;90.70;;;;;;5026943;28;20076;-45
2023/01/12 11:52:12;;;;;;;29.08;4.82;;;10.40;90.70;;;;;;5031061;28;20057;-44
2023/01/12 11:54:40;;;;;;;25.92;5.25;;;10.30;90.90;;;;;;5043660;28;20080;-46
2023/01/12 11:57:32;;;;;;;18.52;4.15;;;10.30;91.10;;;;;;5029038;28;20021;-46
2023/01/12 12:00:13;;;;;;;21.48;4.95;;;10.30;91.30;;;;;;5029852;28;20420;-46
2023/01/12 12:03:09;;;;;;;21.30;5.40;;;10.10;91.20;;;;;;5030492;28;20053;-48
2023/01/12 12:06:07;;;;;;;15.20;3.72;;;10.00;90.90;;;;;;5024766;28;20136;-47
2023/01/12 12:08:58;;;;;;;18.48;3.70;;;10.00;90.90;;;;;;5030966;28;20087;-48
2023/01/12 12:12:02;;;;;;;17.48;4.07;;;9.90;91.10;;;;;;5030314;28;20032;-45
2023/01/12 12:14:31;;;;;;;25.55;4.63;;;9.90;91.20;;;;;;5031085;28;20033;-44
2023/01/12 12:17:29;;;;;;;14.48;3.67;;;9.80;91.00;;;;;;5032243;28;20367;-47
2023/01/12 12:20:13;;;;;;;13.85;3.50;;;9.90;91.10;;;;;;5025622;28;20076;-45
2023/01/12 12:22:54;;;;;;;23.80;4.65;;;9.90;91.00;;;;;;5031822;28;20033;-45
2023/01/12 12:25:31;;;;;;;16.40;4.57;;;9.90;91.10;;;;;;5031558;28;20029;-45
2023/01/12 12:28:37;;;;;;;16.77;4.07;;;9.80;91.10;;;;;;5025878;28;20029;-45
2023/01/12 12:31:36;;;;;;;16.85;4.18;;;9.80;91.10;;;;;;5031573;28;20022;-46
2023/01/12 12:34:29;;;;;;;20.30;3.77;;;9.90;90.90;;;;;;5027641;28;20131;-46
2023/01/12 12:37:08;;;;;;;18.77;3.40;;;9.90;90.80;;;;;;5032082;28;20030;-49
2023/01/12 12:39:59;;;;;;;15.55;3.80;;;9.90;90.80;;;;;;5028147;28;20026;-51
2023/01/12 12:46:08;;;;;;;23.42;4.03;;;10.00;90.60;;;;;;5020162;28;20041;-45
2023/01/12 12:48:55;;;;;;;19.48;4.93;;;10.00;90.60;;;;;;5027530;28;20434;-49
2023/01/12 12:51:24;;;;;;;18.67;5.28;;;10.00;90.50;;;;;;5032929;28;20391;-48
2023/01/12 12:53:55;;;;;;;20.85;4.53;;;10.00;90.50;;;;;;5032816;28;20075;-48
2023/01/12 12:56:23;;;;;;;24.20;4.45;;;10.00;90.60;;;;;;5031752;28;20116;-49
2023/01/12 12:58:56;;;;;;;21.55;5.32;;;10.00;90.60;;;;;;5033266;28;20570;-46
2023/01/12 13:01:25;;;;;;;13.75;4.13;;;10.00;90.70;;;;;;5030068;28;20092;-46
2023/01/12 13:04:03;;;;;;;21.23;4.82;;;10.00;90.50;;;;;;5031478;28;20076;-47
2023/01/12 13:06:48;;;;;;;19.83;4.45;;;10.10;90.50;;;;;;5004707;28;20049;-48
2023/01/12 13:09:17;;;;;;;25.73;4.63;;;10.10;90.50;;;;;;5029271;28;20033;-50
2023/01/12 13:11:58;;;;;;;15.95;4.05;;;10.10;90.60;;;;;;5031866;28;20109;-48
2023/01/12 13:14:42;;;;;;;19.15;4.28;;;10.10;90.60;;;;;;5026277;28;20359;-49
2023/01/12 13:17:20;;;;;;;16.58;4.10;;;10.10;90.60;;;;;;5029087;28;20443;-50
2023/01/12 13:20:04;;;;;;;19.70;4.32;;;10.10;90.80;;;;;;5023971;28;20037;-48
2023/01/12 13:22:49;;;;;;;17.58;4.40;;;10.10;90.70;;;;;;5030825;28;20033;-47
2023/01/12 13:25:18;;;;;;;19.58;4.63;;;10.10;90.80;;;;;;5030224;28;20529;-49
2023/01/12 13:27:59;;;;;;;22.20;5.63;;;10.10;90.80;;;;;;5030630;28;20053;-49
2023/01/12 13:30:30;;;;;;;20.52;4.20;;;10.20;90.90;;;;;;5032445;28;20025;-48
2023/01/12 13:33:14;;;;;;;18.85;4.70;;;10.20;91.00;;;;;;5030265;28;20029;-49
2023/01/12 13:35:43;;;;;;;14.38;4.85;;;10.20;90.90;;;;;;5040591;28;20348;-48
2023/01/12 13:38:28;;;;;;;22.33;4.40;;;10.20;91.10;;;;;;5029794;28;20128;-48
2023/01/12 13:41:12;;;;;;;17.55;4.38;;;10.20;91.20;;;;;;5028874;28;20839;-50
2023/01/12 13:43:43;;;;;;;24.65;5.15;;;10.20;91.30;;;;;;5026628;28;20108;-49
2023/01/12 13:46:42;;;;;;;25.67;4.30;;;10.20;91.40;;;;;;5028696;28;20061;-48
2023/01/12 13:49:33;;;;;;;23.40;4.05;;;10.20;91.50;;;;;;5031155;28;20042;-51
2023/01/12 13:52:18;;;;;;;14.45;4.85;;;10.20;91.60;;;;;;5017415;28;20040;-48
2023/01/12 13:54:51;;;;;;;14.52;3.33;;;10.30;91.70;;;;;;5030030;28;20425;-47
2023/01/12 13:57:24;;;;;;;14.10;3.40;;;10.30;91.80;;;;;;5030534;28;20159;-49
2023/01/12 14:00:08;;;;;;;25.52;5.05;;;10.30;91.80;;;;;;5029240;28;20029;-50
2023/01/12 14:02:40;;;;;;;13.48;4.00;;;10.30;91.80;;;;;;5029174;28;20050;-48